sensor_id;sensor_type;location;lat;lon;timestamp;P1;durP1;ratioP1;P2;durP2;ratioP2
75090;SDS011;63674;48.048;8.306;2022-12-18T00:00:22;16.83;;;5.85;;
75090;SDS011;63674;48.048;8.306;2022-12-18T00:02:50;20.05;;;6.95;;
75090;SDS011;63674;48.048;8.306;2022-12-18T00:05:19;14.73;;;4.95;;
75090;SDS011;63674;48.048;8.306;2022-12-18T00:07:48;17.70;;;5.53;;
75090;SDS011;63674;48.048;8.306;2022-12-18T00:10:17;14.48;;;4.80;;
75090;SDS011;63674;48.048;8.306;2022-12-18T00:12:46;12.98;;;4.15;;
75090;SDS011;63674;48.048;8.306;2022-12-18T00:15:15;12.52;;;4.22;;
75090;SDS011;63674;48.048;8.306;2022-12-18T00:17:45;11.93;;;3.30;;
75090;SDS011;63674;48.048;8.306;2022-12-18T00:20:14;16.07;;;4.13;;
75090;SDS011;63674;48.048;8.306;2022-12-18T00:22:48;16.60;;;5.18;;
75090;SDS011;63674;48.048;8.306;2022-12-18T00:25:16;15.25;;;4.40;;
75090;SDS011;63674;48.048;8.306;2022-12-18T00:27:45;11.85;;;3.65;;
75090;SDS011;63674;48.048;8.306;2022-12-18T00:30:14;18.33;;;4.57;;
75090;SDS011;63674;48.048;8.306;2022-12-18T00:32:43;14.40;;;3.83;;
75090;SDS011;63674;48.048;8.306;2022-12-18T00:35:13;10.98;;;3.40;;
75090;SDS011;63674;48.048;8.306;2022-12-18T00:37:42;15.35;;;4.13;;
75090;SDS011;63674;48.048;8.306;2022-12-18T00:40:11;14.43;;;4.47;;
75090;SDS011;63674;48.048;8.306;2022-12-18T00:42:40;13.93;;;3.63;;
75090;SDS011;63674;48.048;8.306;2022-12-18T00:45:24;12.50;;;3.87;;
75090;SDS011;63674;48.048;8.306;2022-12-18T00:47:57;10.23;;;3.50;;
75090;SDS011;63674;48.048;8.306;2022-12-18T00:50:26;13.25;;;4.05;;
75090;SDS011;63674;48.048;8.306;2022-12-18T00:52:55;13.38;;;4.13;;
75090;SDS011;63674;48.048;8.306;2022-12-18T00:55:24;12.65;;;4.25;;
75090;SDS011;63674;48.048;8.306;2022-12-18T00:57:53;18.70;;;4.63;;
75090;SDS011;63674;48.048;8.306;2022-12-18T01:00:22;12.80;;;4.18;;
75090;SDS011;63674;48.048;8.306;2022-12-18T01:02:51;14.30;;;4.20;;
75090;SDS011;63674;48.048;8.306;2022-12-18T01:05:21;11.98;;;3.65;;
75090;SDS011;63674;48.048;8.306;2022-12-18T01:07:50;11.30;;;3.55;;
75090;SDS011;63674;48.048;8.306;2022-12-18T01:10:19;11.50;;;3.13;;
75090;SDS011;63674;48.048;8.306;2022-12-18T01:12:48;10.32;;;3.40;;
75090;SDS011;63674;48.048;8.306;2022-12-18T01:15:17;10.18;;;2.78;;
75090;SDS011;63674;48.048;8.306;2022-12-18T01:17:46;11.70;;;3.17;;
75090;SDS011;63674;48.048;8.306;2022-12-18T01:20:15;11.38;;;3.88;;
75090;SDS011;63674;48.048;8.306;2022-12-18T01:22:46;12.57;;;3.87;;
75090;SDS011;63674;48.048;8.306;2022-12-18T01:25:14;12.65;;;3.22;;
75090;SDS011;63674;48.048;8.306;2022-12-18T01:27:43;11.15;;;3.42;;
75090;SDS011;63674;48.048;8.306;2022-12-18T01:30:12;9.88;;;3.20;;
75090;SDS011;63674;48.048;8.306;2022-12-18T01:32:41;11.52;;;3.70;;
75090;SDS011;63674;48.048;8.306;2022-12-18T01:35:10;11.97;;;3.03;;
75090;SDS011;63674;48.048;8.306;2022-12-18T01:37:39;11.68;;;3.55;;
75090;SDS011;63674;48.048;8.306;2022-12-18T01:40:10;12.75;;;3.38;;
75090;SDS011;63674;48.048;8.306;2022-12-18T01:42:39;10.38;;;2.95;;
75090;SDS011;63674;48.048;8.306;2022-12-18T01:45:21;10.35;;;3.22;;
75090;SDS011;63674;48.048;8.306;2022-12-18T01:47:54;10.87;;;3.37;;
75090;SDS011;63674;48.048;8.306;2022-12-18T01:50:27;11.73;;;3.25;;
75090;SDS011;63674;48.048;8.306;2022-12-18T01:53:00;11.82;;;3.65;;
75090;SDS011;63674;48.048;8.306;2022-12-18T01:55:36;10.07;;;3.25;;
75090;SDS011;63674;48.048;8.306;2022-12-18T01:58:12;12.23;;;4.22;;
75090;SDS011;63674;48.048;8.306;2022-12-18T02:00:41;10.17;;;3.50;;
75090;SDS011;63674;48.048;8.306;2022-12-18T02:03:11;10.50;;;3.60;;
75090;SDS011;63674;48.048;8.306;2022-12-18T02:05:43;10.45;;;3.35;;
75090;SDS011;63674;48.048;8.306;2022-12-18T02:08:16;11.63;;;3.20;;
75090;SDS011;63674;48.048;8.306;2022-12-18T02:10:53;9.32;;;2.85;;
75090;SDS011;63674;48.048;8.306;2022-12-18T02:13:32;7.63;;;2.53;;
75090;SDS011;63674;48.048;8.306;2022-12-18T02:16:10;11.38;;;3.28;;
75090;SDS011;63674;48.048;8.306;2022-12-18T02:18:51;9.95;;;2.95;;
75090;SDS011;63674;48.048;8.306;2022-12-18T02:21:27;9.30;;;2.92;;
75090;SDS011;63674;48.048;8.306;2022-12-18T02:24:15;10.20;;;3.25;;
75090;SDS011;63674;48.048;8.306;2022-12-18T02:26:56;10.83;;;3.30;;
75090;SDS011;63674;48.048;8.306;2022-12-18T02:29:29;10.35;;;3.22;;
75090;SDS011;63674;48.048;8.306;2022-12-18T02:32:04;11.68;;;3.17;;
75090;SDS011;63674;48.048;8.306;2022-12-18T02:34:39;12.48;;;4.50;;
75090;SDS011;63674;48.048;8.306;2022-12-18T02:37:09;16.20;;;4.80;;
75090;SDS011;63674;48.048;8.306;2022-12-18T02:39:41;15.70;;;5.33;;
75090;SDS011;63674;48.048;8.306;2022-12-18T02:42:13;12.55;;;4.85;;
75090;SDS011;63674;48.048;8.306;2022-12-18T02:44:42;13.23;;;4.55;;
75090;SDS011;63674;48.048;8.306;2022-12-18T02:47:12;11.68;;;3.45;;
75090;SDS011;63674;48.048;8.306;2022-12-18T02:49:44;10.95;;;3.63;;
75090;SDS011;63674;48.048;8.306;2022-12-18T02:52:24;9.43;;;3.10;;
75090;SDS011;63674;48.048;8.306;2022-12-18T02:55:04;10.68;;;3.05;;
75090;SDS011;63674;48.048;8.306;2022-12-18T02:57:48;11.80;;;4.03;;
75090;SDS011;63674;48.048;8.306;2022-12-18T03:00:21;11.98;;;4.32;;
75090;SDS011;63674;48.048;8.306;2022-12-18T03:02:55;13.02;;;4.40;;
75090;SDS011;63674;48.048;8.306;2022-12-18T03:05:31;12.70;;;4.43;;
75090;SDS011;63674;48.048;8.306;2022-12-18T03:08:06;12.63;;;3.90;;
75090;SDS011;63674;48.048;8.306;2022-12-18T03:10:41;15.05;;;4.28;;
75090;SDS011;63674;48.048;8.306;2022-12-18T03:13:19;13.15;;;3.92;;
75090;SDS011;63674;48.048;8.306;2022-12-18T03:15:59;10.77;;;3.35;;
75090;SDS011;63674;48.048;8.306;2022-12-18T03:18:29;10.97;;;3.70;;
75090;SDS011;63674;48.048;8.306;2022-12-18T03:21:05;8.77;;;2.92;;
75090;SDS011;63674;48.048;8.306;2022-12-18T03:23:36;10.60;;;3.10;;
75090;SDS011;63674;48.048;8.306;2022-12-18T03:26:10;10.15;;;3.50;;
75090;SDS011;63674;48.048;8.306;2022-12-18T03:28:44;13.02;;;3.60;;
75090;SDS011;63674;48.048;8.306;2022-12-18T03:31:19;9.90;;;3.03;;
75090;SDS011;63674;48.048;8.306;2022-12-18T03:33:51;12.80;;;3.58;;
75090;SDS011;63674;48.048;8.306;2022-12-18T03:36:22;17.65;;;5.80;;
75090;SDS011;63674;48.048;8.306;2022-12-18T03:38:51;20.55;;;7.05;;
75090;SDS011;63674;48.048;8.306;2022-12-18T03:41:22;19.27;;;6.90;;
75090;SDS011;63674;48.048;8.306;2022-12-18T03:44:01;19.20;;;6.17;;
75090;SDS011;63674;48.048;8.306;2022-12-18T03:46:40;18.23;;;5.85;;
75090;SDS011;63674;48.048;8.306;2022-12-18T03:49:14;17.95;;;6.35;;
75090;SDS011;63674;48.048;8.306;2022-12-18T03:51:52;17.67;;;5.68;;
75090;SDS011;63674;48.048;8.306;2022-12-18T03:54:29;18.27;;;5.78;;
75090;SDS011;63674;48.048;8.306;2022-12-18T03:56:59;19.47;;;6.40;;
75090;SDS011;63674;48.048;8.306;2022-12-18T03:59:34;16.90;;;6.15;;
75090;SDS011;63674;48.048;8.306;2022-12-18T04:02:05;16.98;;;5.88;;
75090;SDS011;63674;48.048;8.306;2022-12-18T04:04:36;14.32;;;5.32;;
75090;SDS011;63674;48.048;8.306;2022-12-18T04:07:06;16.08;;;5.00;;
75090;SDS011;63674;48.048;8.306;2022-12-18T04:09:36;16.00;;;5.43;;
75090;SDS011;63674;48.048;8.306;2022-12-18T04:12:06;15.32;;;5.75;;
75090;SDS011;63674;48.048;8.306;2022-12-18T04:14:38;12.73;;;4.30;;
75090;SDS011;63674;48.048;8.306;2022-12-18T04:17:07;14.02;;;4.45;;
75090;SDS011;63674;48.048;8.306;2022-12-18T04:19:36;15.30;;;4.32;;
75090;SDS011;63674;48.048;8.306;2022-12-18T04:22:06;13.73;;;4.73;;
75090;SDS011;63674;48.048;8.306;2022-12-18T04:24:36;16.52;;;4.70;;
75090;SDS011;63674;48.048;8.306;2022-12-18T04:27:05;11.73;;;4.13;;
75090;SDS011;63674;48.048;8.306;2022-12-18T04:29:34;14.45;;;4.18;;
75090;SDS011;63674;48.048;8.306;2022-12-18T04:32:04;13.75;;;4.80;;
75090;SDS011;63674;48.048;8.306;2022-12-18T04:34:33;12.63;;;4.37;;
75090;SDS011;63674;48.048;8.306;2022-12-18T04:37:02;13.07;;;4.60;;
75090;SDS011;63674;48.048;8.306;2022-12-18T04:39:31;14.73;;;5.32;;
75090;SDS011;63674;48.048;8.306;2022-12-18T04:42:00;14.13;;;4.55;;
75090;SDS011;63674;48.048;8.306;2022-12-18T04:44:29;16.63;;;4.50;;
75090;SDS011;63674;48.048;8.306;2022-12-18T04:46:57;12.13;;;4.40;;
75090;SDS011;63674;48.048;8.306;2022-12-18T04:49:28;13.25;;;4.18;;
75090;SDS011;63674;48.048;8.306;2022-12-18T04:51:56;14.98;;;4.00;;
75090;SDS011;63674;48.048;8.306;2022-12-18T04:54:25;14.00;;;4.57;;
75090;SDS011;63674;48.048;8.306;2022-12-18T04:56:54;13.80;;;4.57;;
75090;SDS011;63674;48.048;8.306;2022-12-18T04:59:23;15.97;;;4.87;;
75090;SDS011;63674;48.048;8.306;2022-12-18T05:01:52;15.45;;;5.03;;
75090;SDS011;63674;48.048;8.306;2022-12-18T05:04:21;13.50;;;4.88;;
75090;SDS011;63674;48.048;8.306;2022-12-18T05:06:51;12.60;;;3.80;;
75090;SDS011;63674;48.048;8.306;2022-12-18T05:09:20;14.05;;;4.70;;
75090;SDS011;63674;48.048;8.306;2022-12-18T05:11:49;14.67;;;4.00;;
75090;SDS011;63674;48.048;8.306;2022-12-18T05:14:18;13.80;;;4.72;;
75090;SDS011;63674;48.048;8.306;2022-12-18T05:16:47;12.20;;;3.72;;
75090;SDS011;63674;48.048;8.306;2022-12-18T05:19:15;15.43;;;4.38;;
75090;SDS011;63674;48.048;8.306;2022-12-18T05:21:44;14.10;;;4.53;;
75090;SDS011;63674;48.048;8.306;2022-12-18T05:24:15;14.43;;;3.73;;
75090;SDS011;63674;48.048;8.306;2022-12-18T05:26:43;15.23;;;4.88;;
75090;SDS011;63674;48.048;8.306;2022-12-18T05:29:12;14.15;;;4.80;;
75090;SDS011;63674;48.048;8.306;2022-12-18T05:31:41;14.30;;;4.82;;
75090;SDS011;63674;48.048;8.306;2022-12-18T05:34:10;15.40;;;4.25;;
75090;SDS011;63674;48.048;8.306;2022-12-18T05:36:39;11.90;;;4.40;;
75090;SDS011;63674;48.048;8.306;2022-12-18T05:39:09;12.73;;;3.90;;
75090;SDS011;63674;48.048;8.306;2022-12-18T05:41:40;12.85;;;4.00;;
75090;SDS011;63674;48.048;8.306;2022-12-18T05:44:09;12.50;;;3.65;;
75090;SDS011;63674;48.048;8.306;2022-12-18T05:46:38;13.95;;;4.70;;
75090;SDS011;63674;48.048;8.306;2022-12-18T05:49:07;11.90;;;3.83;;
75090;SDS011;63674;48.048;8.306;2022-12-18T05:51:36;11.43;;;4.05;;
75090;SDS011;63674;48.048;8.306;2022-12-18T05:54:05;14.88;;;5.53;;
75090;SDS011;63674;48.048;8.306;2022-12-18T05:56:34;15.27;;;5.25;;
75090;SDS011;63674;48.048;8.306;2022-12-18T05:59:05;14.65;;;4.82;;
75090;SDS011;63674;48.048;8.306;2022-12-18T06:01:33;13.03;;;4.67;;
75090;SDS011;63674;48.048;8.306;2022-12-18T06:04:03;13.27;;;3.90;;
75090;SDS011;63674;48.048;8.306;2022-12-18T06:06:32;11.40;;;4.30;;
75090;SDS011;63674;48.048;8.306;2022-12-18T06:09:01;17.10;;;5.75;;
75090;SDS011;63674;48.048;8.306;2022-12-18T06:11:35;16.00;;;4.93;;
75090;SDS011;63674;48.048;8.306;2022-12-18T06:14:06;11.37;;;4.07;;
75090;SDS011;63674;48.048;8.306;2022-12-18T06:16:35;14.15;;;4.65;;
75090;SDS011;63674;48.048;8.306;2022-12-18T06:19:04;16.88;;;5.28;;
75090;SDS011;63674;48.048;8.306;2022-12-18T06:21:33;14.95;;;4.75;;
75090;SDS011;63674;48.048;8.306;2022-12-18T06:24:03;13.73;;;4.57;;
75090;SDS011;63674;48.048;8.306;2022-12-18T06:26:32;13.53;;;4.47;;
75090;SDS011;63674;48.048;8.306;2022-12-18T06:29:01;14.38;;;4.63;;
75090;SDS011;63674;48.048;8.306;2022-12-18T06:31:31;15.27;;;4.93;;
75090;SDS011;63674;48.048;8.306;2022-12-18T06:34:01;11.70;;;3.83;;
75090;SDS011;63674;48.048;8.306;2022-12-18T06:36:32;17.83;;;5.05;;
75090;SDS011;63674;48.048;8.306;2022-12-18T06:39:01;14.50;;;4.27;;
75090;SDS011;63674;48.048;8.306;2022-12-18T06:41:30;12.55;;;3.97;;
75090;SDS011;63674;48.048;8.306;2022-12-18T06:43:59;15.98;;;4.53;;
75090;SDS011;63674;48.048;8.306;2022-12-18T06:46:27;13.65;;;5.00;;
75090;SDS011;63674;48.048;8.306;2022-12-18T06:48:58;22.63;;;4.68;;
75090;SDS011;63674;48.048;8.306;2022-12-18T06:51:26;14.47;;;4.93;;
75090;SDS011;63674;48.048;8.306;2022-12-18T06:53:55;17.20;;;4.88;;
75090;SDS011;63674;48.048;8.306;2022-12-18T06:56:24;16.33;;;4.72;;
75090;SDS011;63674;48.048;8.306;2022-12-18T06:58:53;15.65;;;5.20;;
75090;SDS011;63674;48.048;8.306;2022-12-18T07:01:22;15.23;;;4.90;;
75090;SDS011;63674;48.048;8.306;2022-12-18T07:03:51;14.90;;;5.60;;
75090;SDS011;63674;48.048;8.306;2022-12-18T07:06:23;14.25;;;4.82;;
75090;SDS011;63674;48.048;8.306;2022-12-18T07:08:53;15.18;;;4.68;;
75090;SDS011;63674;48.048;8.306;2022-12-18T07:11:23;14.68;;;4.55;;
75090;SDS011;63674;48.048;8.306;2022-12-18T07:13:53;15.88;;;5.10;;
75090;SDS011;63674;48.048;8.306;2022-12-18T07:16:21;18.63;;;5.63;;
75090;SDS011;63674;48.048;8.306;2022-12-18T07:18:51;23.75;;;7.28;;
75090;SDS011;63674;48.048;8.306;2022-12-18T07:21:23;17.35;;;5.22;;
75090;SDS011;63674;48.048;8.306;2022-12-18T07:23:52;16.02;;;5.47;;
75090;SDS011;63674;48.048;8.306;2022-12-18T07:26:21;11.70;;;4.70;;
75090;SDS011;63674;48.048;8.306;2022-12-18T07:28:50;17.53;;;6.43;;
75090;SDS011;63674;48.048;8.306;2022-12-18T07:31:24;19.08;;;6.32;;
75090;SDS011;63674;48.048;8.306;2022-12-18T07:33:54;21.58;;;7.18;;
75090;SDS011;63674;48.048;8.306;2022-12-18T07:36:24;22.33;;;6.57;;
75090;SDS011;63674;48.048;8.306;2022-12-18T07:38:53;17.02;;;5.68;;
75090;SDS011;63674;48.048;8.306;2022-12-18T07:41:22;19.63;;;6.27;;
75090;SDS011;63674;48.048;8.306;2022-12-18T07:43:51;14.88;;;5.55;;
75090;SDS011;63674;48.048;8.306;2022-12-18T07:46:20;17.33;;;5.18;;
75090;SDS011;63674;48.048;8.306;2022-12-18T07:48:49;14.55;;;5.15;;
75090;SDS011;63674;48.048;8.306;2022-12-18T07:51:18;19.50;;;5.53;;
75090;SDS011;63674;48.048;8.306;2022-12-18T07:53:48;19.13;;;6.07;;
75090;SDS011;63674;48.048;8.306;2022-12-18T07:56:18;16.27;;;4.85;;
75090;SDS011;63674;48.048;8.306;2022-12-18T07:58:53;16.13;;;4.90;;
75090;SDS011;63674;48.048;8.306;2022-12-18T08:01:23;16.63;;;5.20;;
75090;SDS011;63674;48.048;8.306;2022-12-18T08:03:52;22.80;;;6.75;;
75090;SDS011;63674;48.048;8.306;2022-12-18T08:06:21;18.13;;;5.57;;
75090;SDS011;63674;48.048;8.306;2022-12-18T08:08:52;17.88;;;6.90;;
75090;SDS011;63674;48.048;8.306;2022-12-18T08:11:22;19.52;;;6.20;;
75090;SDS011;63674;48.048;8.306;2022-12-18T08:13:53;18.20;;;6.25;;
75090;SDS011;63674;48.048;8.306;2022-12-18T08:16:23;15.35;;;5.88;;
75090;SDS011;63674;48.048;8.306;2022-12-18T08:18:52;18.77;;;6.70;;
75090;SDS011;63674;48.048;8.306;2022-12-18T08:21:22;17.20;;;6.47;;
75090;SDS011;63674;48.048;8.306;2022-12-18T08:23:57;17.50;;;5.95;;
75090;SDS011;63674;48.048;8.306;2022-12-18T08:26:28;19.15;;;6.38;;
75090;SDS011;63674;48.048;8.306;2022-12-18T08:28:59;20.08;;;6.85;;
75090;SDS011;63674;48.048;8.306;2022-12-18T08:31:29;18.37;;;6.80;;
75090;SDS011;63674;48.048;8.306;2022-12-18T08:33:59;25.23;;;7.63;;
75090;SDS011;63674;48.048;8.306;2022-12-18T08:36:28;27.95;;;8.68;;
75090;SDS011;63674;48.048;8.306;2022-12-18T08:38:58;30.48;;;10.68;;
75090;SDS011;63674;48.048;8.306;2022-12-18T08:41:27;29.98;;;10.63;;
75090;SDS011;63674;48.048;8.306;2022-12-18T08:43:56;33.77;;;11.47;;
75090;SDS011;63674;48.048;8.306;2022-12-18T08:46:42;35.75;;;12.40;;
75090;SDS011;63674;48.048;8.306;2022-12-18T08:49:12;32.15;;;11.85;;
75090;SDS011;63674;48.048;8.306;2022-12-18T08:51:41;31.83;;;11.18;;
75090;SDS011;63674;48.048;8.306;2022-12-18T08:54:12;27.50;;;9.88;;
75090;SDS011;63674;48.048;8.306;2022-12-18T08:56:41;26.00;;;8.17;;
75090;SDS011;63674;48.048;8.306;2022-12-18T08:59:10;23.05;;;7.90;;
75090;SDS011;63674;48.048;8.306;2022-12-18T09:01:45;25.48;;;7.78;;
75090;SDS011;63674;48.048;8.306;2022-12-18T09:04:15;22.30;;;7.68;;
75090;SDS011;63674;48.048;8.306;2022-12-18T09:06:44;22.92;;;7.70;;
75090;SDS011;63674;48.048;8.306;2022-12-18T09:09:14;24.83;;;7.43;;
75090;SDS011;63674;48.048;8.306;2022-12-18T09:11:42;19.70;;;7.22;;
75090;SDS011;63674;48.048;8.306;2022-12-18T09:14:11;25.15;;;7.90;;
75090;SDS011;63674;48.048;8.306;2022-12-18T09:16:40;20.60;;;7.32;;
75090;SDS011;63674;48.048;8.306;2022-12-18T09:19:09;22.88;;;7.22;;
75090;SDS011;63674;48.048;8.306;2022-12-18T09:21:38;26.33;;;9.03;;
75090;SDS011;63674;48.048;8.306;2022-12-18T09:24:14;21.60;;;7.88;;
75090;SDS011;63674;48.048;8.306;2022-12-18T09:26:44;18.08;;;6.85;;
75090;SDS011;63674;48.048;8.306;2022-12-18T09:29:13;16.48;;;5.82;;
75090;SDS011;63674;48.048;8.306;2022-12-18T09:31:44;17.80;;;5.28;;
75090;SDS011;63674;48.048;8.306;2022-12-18T09:34:13;19.47;;;6.43;;
75090;SDS011;63674;48.048;8.306;2022-12-18T09:36:42;17.35;;;5.63;;
75090;SDS011;63674;48.048;8.306;2022-12-18T09:39:12;19.55;;;6.45;;
75090;SDS011;63674;48.048;8.306;2022-12-18T09:41:46;18.70;;;6.07;;
75090;SDS011;63674;48.048;8.306;2022-12-18T09:44:21;21.25;;;6.07;;
75090;SDS011;63674;48.048;8.306;2022-12-18T09:46:54;19.60;;;6.77;;
75090;SDS011;63674;48.048;8.306;2022-12-18T09:49:33;21.30;;;5.88;;
75090;SDS011;63674;48.048;8.306;2022-12-18T09:52:08;19.77;;;6.50;;
75090;SDS011;63674;48.048;8.306;2022-12-18T09:54:45;18.38;;;6.47;;
75090;SDS011;63674;48.048;8.306;2022-12-18T09:57:18;23.10;;;8.50;;
75090;SDS011;63674;48.048;8.306;2022-12-18T09:59:53;29.50;;;10.20;;
75090;SDS011;63674;48.048;8.306;2022-12-18T10:02:25;26.35;;;9.43;;
75090;SDS011;63674;48.048;8.306;2022-12-18T10:05:05;29.50;;;11.15;;
75090;SDS011;63674;48.048;8.306;2022-12-18T10:07:50;31.25;;;12.38;;
75090;SDS011;63674;48.048;8.306;2022-12-18T10:10:32;30.95;;;10.45;;
75090;SDS011;63674;48.048;8.306;2022-12-18T10:13:09;29.07;;;9.90;;
75090;SDS011;63674;48.048;8.306;2022-12-18T10:15:54;31.70;;;11.80;;
75090;SDS011;63674;48.048;8.306;2022-12-18T10:18:41;33.30;;;11.75;;
75090;SDS011;63674;48.048;8.306;2022-12-18T10:21:28;30.75;;;11.15;;
75090;SDS011;63674;48.048;8.306;2022-12-18T10:24:03;28.38;;;11.32;;
75090;SDS011;63674;48.048;8.306;2022-12-18T10:26:44;23.20;;;8.70;;
75090;SDS011;63674;48.048;8.306;2022-12-18T10:29:15;22.52;;;8.02;;
75090;SDS011;63674;48.048;8.306;2022-12-18T10:31:44;24.95;;;9.57;;
75090;SDS011;63674;48.048;8.306;2022-12-18T10:34:13;29.67;;;11.40;;
75090;SDS011;63674;48.048;8.306;2022-12-18T10:36:42;33.15;;;11.63;;
75090;SDS011;63674;48.048;8.306;2022-12-18T10:39:15;25.63;;;10.50;;
75090;SDS011;63674;48.048;8.306;2022-12-18T10:41:48;28.67;;;10.93;;
75090;SDS011;63674;48.048;8.306;2022-12-18T10:44:17;30.98;;;10.82;;
75090;SDS011;63674;48.048;8.306;2022-12-18T10:46:49;31.75;;;11.40;;
75090;SDS011;63674;48.048;8.306;2022-12-18T10:49:23;29.95;;;11.27;;
75090;SDS011;63674;48.048;8.306;2022-12-18T10:52:04;26.53;;;11.47;;
75090;SDS011;63674;48.048;8.306;2022-12-18T10:54:35;32.08;;;11.38;;
75090;SDS011;63674;48.048;8.306;2022-12-18T10:57:15;31.02;;;10.70;;
75090;SDS011;63674;48.048;8.306;2022-12-18T10:59:58;28.13;;;10.68;;
75090;SDS011;63674;48.048;8.306;2022-12-18T11:02:47;27.67;;;10.52;;
75090;SDS011;63674;48.048;8.306;2022-12-18T11:05:26;24.30;;;8.57;;
75090;SDS011;63674;48.048;8.306;2022-12-18T11:07:58;27.83;;;10.20;;
75090;SDS011;63674;48.048;8.306;2022-12-18T11:10:28;24.23;;;8.93;;
75090;SDS011;63674;48.048;8.306;2022-12-18T11:13:11;28.73;;;10.10;;
75090;SDS011;63674;48.048;8.306;2022-12-18T11:15:45;22.90;;;8.32;;
75090;SDS011;63674;48.048;8.306;2022-12-18T11:18:16;31.10;;;12.07;;
75090;SDS011;63674;48.048;8.306;2022-12-18T11:20:51;24.45;;;9.13;;
75090;SDS011;63674;48.048;8.306;2022-12-18T11:23:24;27.33;;;11.23;;
75090;SDS011;63674;48.048;8.306;2022-12-18T11:25:55;34.00;;;12.25;;
75090;SDS011;63674;48.048;8.306;2022-12-18T11:31:20;25.83;;;8.90;;
75090;SDS011;63674;48.048;8.306;2022-12-18T11:34:02;42.83;;;13.63;;
75090;SDS011;63674;48.048;8.306;2022-12-18T11:36:54;40.70;;;12.35;;
75090;SDS011;63674;48.048;8.306;2022-12-18T11:39:24;30.23;;;9.70;;
75090;SDS011;63674;48.048;8.306;2022-12-18T11:42:04;23.15;;;9.10;;
75090;SDS011;63674;48.048;8.306;2022-12-18T11:44:44;27.53;;;9.60;;
75090;SDS011;63674;48.048;8.306;2022-12-18T11:47:21;41.25;;;11.93;;
75090;SDS011;63674;48.048;8.306;2022-12-18T11:50:00;42.15;;;12.98;;
75090;SDS011;63674;48.048;8.306;2022-12-18T11:52:31;65.65;;;19.60;;
75090;SDS011;63674;48.048;8.306;2022-12-18T11:55:09;33.47;;;11.65;;
75090;SDS011;63674;48.048;8.306;2022-12-18T11:57:44;31.67;;;11.07;;
75090;SDS011;63674;48.048;8.306;2022-12-18T12:00:23;37.28;;;14.18;;
75090;SDS011;63674;48.048;8.306;2022-12-18T12:06:11;27.92;;;9.98;;
75090;SDS011;63674;48.048;8.306;2022-12-18T12:08:51;28.13;;;10.48;;
75090;SDS011;63674;48.048;8.306;2022-12-18T12:11:34;33.07;;;10.87;;
75090;SDS011;63674;48.048;8.306;2022-12-18T12:14:18;36.20;;;13.07;;
75090;SDS011;63674;48.048;8.306;2022-12-18T12:17:14;34.35;;;11.48;;
75090;SDS011;63674;48.048;8.306;2022-12-18T12:19:52;30.85;;;11.10;;
75090;SDS011;63674;48.048;8.306;2022-12-18T12:22:31;27.55;;;10.95;;
75090;SDS011;63674;48.048;8.306;2022-12-18T12:25:16;29.30;;;10.90;;
75090;SDS011;63674;48.048;8.306;2022-12-18T12:27:57;32.17;;;10.73;;
75090;SDS011;63674;48.048;8.306;2022-12-18T12:30:43;31.58;;;9.98;;
75090;SDS011;63674;48.048;8.306;2022-12-18T12:33:28;28.10;;;10.18;;
75090;SDS011;63674;48.048;8.306;2022-12-18T12:36:10;30.10;;;10.55;;
75090;SDS011;63674;48.048;8.306;2022-12-18T12:38:49;25.17;;;9.97;;
75090;SDS011;63674;48.048;8.306;2022-12-18T12:41:23;23.90;;;8.60;;
75090;SDS011;63674;48.048;8.306;2022-12-18T12:44:14;29.08;;;9.82;;
75090;SDS011;63674;48.048;8.306;2022-12-18T12:46:48;24.27;;;9.23;;
75090;SDS011;63674;48.048;8.306;2022-12-18T12:49:21;25.50;;;8.80;;
75090;SDS011;63674;48.048;8.306;2022-12-18T12:51:57;30.02;;;10.10;;
75090;SDS011;63674;48.048;8.306;2022-12-18T12:54:33;26.52;;;9.38;;
75090;SDS011;63674;48.048;8.306;2022-12-18T12:57:06;32.85;;;11.98;;
75090;SDS011;63674;48.048;8.306;2022-12-18T12:59:42;28.38;;;10.30;;
75090;SDS011;63674;48.048;8.306;2022-12-18T13:02:20;27.92;;;10.38;;
75090;SDS011;63674;48.048;8.306;2022-12-18T13:05:00;29.43;;;10.17;;
75090;SDS011;63674;48.048;8.306;2022-12-18T13:07:35;23.65;;;9.30;;
75090;SDS011;63674;48.048;8.306;2022-12-18T13:12:59;36.33;;;15.10;;
75090;SDS011;63674;48.048;8.306;2022-12-18T13:15:32;29.02;;;12.05;;
75090;SDS011;63674;48.048;8.306;2022-12-18T13:18:16;29.77;;;11.93;;
75090;SDS011;63674;48.048;8.306;2022-12-18T13:20:49;28.92;;;11.63;;
75090;SDS011;63674;48.048;8.306;2022-12-18T13:23:36;35.85;;;13.68;;
75090;SDS011;63674;48.048;8.306;2022-12-18T13:29:07;36.25;;;14.38;;
75090;SDS011;63674;48.048;8.306;2022-12-18T13:35:00;37.92;;;14.77;;
75090;SDS011;63674;48.048;8.306;2022-12-18T13:38:19;32.50;;;12.68;;
75090;SDS011;63674;48.048;8.306;2022-12-18T13:40:54;39.22;;;15.32;;
75090;SDS011;63674;48.048;8.306;2022-12-18T13:43:36;35.33;;;13.88;;
75090;SDS011;63674;48.048;8.306;2022-12-18T13:46:21;27.73;;;11.33;;
75090;SDS011;63674;48.048;8.306;2022-12-18T13:48:54;27.05;;;10.75;;
75090;SDS011;63674;48.048;8.306;2022-12-18T13:51:27;38.53;;;13.20;;
75090;SDS011;63674;48.048;8.306;2022-12-18T13:54:00;35.25;;;13.38;;
75090;SDS011;63674;48.048;8.306;2022-12-18T13:56:31;37.63;;;14.63;;
75090;SDS011;63674;48.048;8.306;2022-12-18T13:59:17;31.07;;;12.17;;
75090;SDS011;63674;48.048;8.306;2022-12-18T14:01:52;40.35;;;14.90;;
75090;SDS011;63674;48.048;8.306;2022-12-18T14:04:25;42.78;;;14.90;;
75090;SDS011;63674;48.048;8.306;2022-12-18T14:06:56;32.08;;;12.80;;
75090;SDS011;63674;48.048;8.306;2022-12-18T14:09:30;36.53;;;14.48;;
75090;SDS011;63674;48.048;8.306;2022-12-18T14:12:04;34.40;;;12.70;;
75090;SDS011;63674;48.048;8.306;2022-12-18T14:14:52;42.28;;;16.20;;
75090;SDS011;63674;48.048;8.306;2022-12-18T14:17:23;43.05;;;16.20;;
75090;SDS011;63674;48.048;8.306;2022-12-18T14:19:51;34.83;;;12.88;;
75090;SDS011;63674;48.048;8.306;2022-12-18T14:22:21;29.77;;;11.68;;
75090;SDS011;63674;48.048;8.306;2022-12-18T14:25:05;32.37;;;11.47;;
75090;SDS011;63674;48.048;8.306;2022-12-18T14:27:44;31.80;;;13.15;;
75090;SDS011;63674;48.048;8.306;2022-12-18T14:30:24;32.58;;;11.57;;
75090;SDS011;63674;48.048;8.306;2022-12-18T14:33:01;34.97;;;12.85;;
75090;SDS011;63674;48.048;8.306;2022-12-18T14:35:31;36.78;;;13.65;;
75090;SDS011;63674;48.048;8.306;2022-12-18T14:38:18;32.23;;;12.93;;
75090;SDS011;63674;48.048;8.306;2022-12-18T14:40:57;33.92;;;12.32;;
75090;SDS011;63674;48.048;8.306;2022-12-18T14:43:27;32.70;;;11.88;;
75090;SDS011;63674;48.048;8.306;2022-12-18T14:45:59;30.20;;;12.23;;
75090;SDS011;63674;48.048;8.306;2022-12-18T14:48:35;31.85;;;11.77;;
75090;SDS011;63674;48.048;8.306;2022-12-18T14:51:06;28.47;;;9.57;;
75090;SDS011;63674;48.048;8.306;2022-12-18T14:53:44;32.85;;;12.75;;
75090;SDS011;63674;48.048;8.306;2022-12-18T14:56:21;29.00;;;11.48;;
75090;SDS011;63674;48.048;8.306;2022-12-18T14:58:52;32.67;;;11.98;;
75090;SDS011;63674;48.048;8.306;2022-12-18T15:01:24;30.30;;;12.25;;
75090;SDS011;63674;48.048;8.306;2022-12-18T15:03:57;38.17;;;13.73;;
75090;SDS011;63674;48.048;8.306;2022-12-18T15:06:29;35.50;;;13.45;;
75090;SDS011;63674;48.048;8.306;2022-12-18T15:09:02;35.88;;;13.90;;
75090;SDS011;63674;48.048;8.306;2022-12-18T15:11:35;36.67;;;12.98;;
75090;SDS011;63674;48.048;8.306;2022-12-18T15:14:24;34.65;;;12.35;;
75090;SDS011;63674;48.048;8.306;2022-12-18T15:17:06;34.00;;;13.13;;
75090;SDS011;63674;48.048;8.306;2022-12-18T15:19:47;31.65;;;12.45;;